createdAt,value
2022-08-26T00:01:10.612Z,100065.25
2022-08-26T00:03:38.749Z,100073.38
2022-08-26T00:06:06.129Z,100069.66
2022-08-26T00:08:35.453Z,100056.34
2022-08-26T00:11:05.426Z,100068.38
2022-08-26T00:13:33.307Z,100074.47
2022-08-26T00:16:00.228Z,100079.59
2022-08-26T00:18:27.120Z,100084.50
2022-08-26T00:20:58.970Z,100078.69
2022-08-26T00:23:25.851Z,100084.19
2022-08-26T00:25:55.588Z,100072.44
2022-08-26T00:28:23.755Z,100082.63
2022-08-26T00:30:51.706Z,100084.91
2022-08-26T00:33:20.479Z,100092.34
2022-08-26T00:35:47.651Z,100095.28
2022-08-26T00:38:15.897Z,100090.63
2022-08-26T00:40:45.912Z,100092.75
2022-08-26T00:43:12.669Z,100102.72
2022-08-26T00:45:43.958Z,100094.31
2022-08-26T00:48:12.454Z,100093.00
2022-08-26T00:50:45.603Z,100091.91
2022-08-26T00:53:12.993Z,100088.22
2022-08-26T00:55:41.614Z,100101.09
2022-08-26T00:58:09.680Z,100100.75
2022-08-26T01:00:36.549Z,100100.03
2022-08-26T01:03:05.275Z,100100.25
2022-08-26T01:05:34.187Z,100106.94
2022-08-26T01:08:01.118Z,100103.72
2022-08-26T01:10:30.669Z,100095.44
2022-08-26T01:13:01.896Z,100087.50
2022-08-26T01:15:35.521Z,100079.13
2022-08-26T01:18:04.390Z,100092.56
2022-08-26T01:20:41.367Z,100085.97
2022-08-26T01:23:11.124Z,100087.81
2022-08-26T01:25:43.040Z,100085.63
2022-08-26T01:28:14.027Z,100091.31
2022-08-26T01:30:41.924Z,100089.38
2022-08-26T01:33:12.866Z,100083.38
2022-08-26T01:35:40.252Z,100086.47
2022-08-26T01:38:06.984Z,100078.84
2022-08-26T01:40:38.590Z,100084.91
2022-08-26T01:43:08.553Z,100058.13
2022-08-26T01:45:39.433Z,100050.53
2022-08-26T01:48:10.329Z,100082.84
2022-08-26T01:50:38.300Z,100088.28
2022-08-26T01:53:09.185Z,100082.94
2022-08-26T01:55:41.702Z,100081.44
2022-08-26T01:58:15.411Z,100078.75
2022-08-26T02:00:42.472Z,100070.19
2022-08-26T02:03:11.574Z,100073.88
2022-08-26T02:05:40.320Z,100077.28
2022-08-26T02:08:10.641Z,100074.84
2022-08-26T02:10:38.739Z,100054.91
2022-08-26T02:13:08.814Z,100060.78
2022-08-26T02:15:36.025Z,100080.88
2022-08-26T02:18:04.900Z,100073.16
2022-08-26T02:20:32.079Z,100066.25
2022-08-26T02:22:58.910Z,100076.56
2022-08-26T02:25:30.653Z,100077.66
2022-08-26T02:27:58.990Z,100068.41
2022-08-26T02:30:27.434Z,100068.72
2022-08-26T02:32:55.294Z,100070.38
2022-08-26T02:35:23.909Z,100066.97
2022-08-26T02:37:52.862Z,100072.19
2022-08-26T02:40:23.532Z,100069.22
2022-08-26T02:42:52.789Z,100079.91
2022-08-26T02:45:23.282Z,100082.34
2022-08-26T02:47:51.373Z,100061.41
2022-08-26T02:50:19.145Z,100075.06
2022-08-26T02:52:45.946Z,100085.97
2022-08-26T02:55:12.883Z,100080.09
2022-08-26T02:57:39.536Z,100076.97
2022-08-26T03:00:09.791Z,100080.72
2022-08-26T03:02:37.895Z,100077.56
2022-08-26T03:05:05.772Z,100066.34
2022-08-26T03:07:32.513Z,100082.13
2022-08-26T03:09:59.233Z,100069.72
2022-08-26T03:12:26.098Z,100065.16
2022-08-26T03:14:53.057Z,100071.22
2022-08-26T03:17:19.875Z,100048.84
2022-08-26T03:19:51.726Z,100064.47
2022-08-26T03:22:21.221Z,100069.56
2022-08-26T03:24:48.008Z,100079.22
2022-08-26T03:27:15.739Z,100072.78
2022-08-26T03:29:44.326Z,100070.75
2022-08-26T03:32:16.352Z,100084.72
2022-08-26T03:34:43.214Z,100081.66
2022-08-26T03:37:11.363Z,100067.00
2022-08-26T03:39:37.995Z,100063.22
2022-08-26T03:42:05.288Z,100082.56
2022-08-26T03:44:32.887Z,100082.34
2022-08-26T03:46:59.575Z,100070.50
2022-08-26T03:49:28.868Z,100069.59
2022-08-26T03:51:55.857Z,100058.28
2022-08-26T03:54:23.907Z,100075.03
2022-08-26T03:56:50.611Z,100071.44
2022-08-26T03:59:17.381Z,100061.28
2022-08-26T04:01:44.454Z,100073.47
2022-08-26T04:04:12.462Z,100073.88
2022-08-26T04:06:42.859Z,100076.41
2022-08-26T04:09:14.625Z,100080.09
2022-08-26T04:11:44.473Z,100067.63
2022-08-26T04:14:13.577Z,100082.94
2022-08-26T04:16:40.436Z,100062.88
2022-08-26T04:19:07.475Z,100070.88
2022-08-26T04:21:34.621Z,100058.09
2022-08-26T04:24:03.577Z,100074.94
2022-08-26T04:26:31.754Z,100073.06
2022-08-26T04:29:01.210Z,100078.66
2022-08-26T04:31:28.006Z,100069.59
2022-08-26T04:33:58.711Z,100072.97
2022-08-26T04:36:25.437Z,100068.00
2022-08-26T04:38:52.270Z,100077.34
2022-08-26T04:41:20.934Z,100085.31
2022-08-26T04:43:48.429Z,100064.25
2022-08-26T04:46:19.881Z,100080.09
2022-08-26T04:48:46.607Z,100075.06
2022-08-26T04:51:13.341Z,100059.78
2022-08-26T04:53:40.236Z,100085.16
2022-08-26T04:56:07.488Z,100071.44
2022-08-26T04:58:35.344Z,100071.13
2022-08-26T05:01:02.258Z,100058.53
2022-08-26T05:03:31.212Z,100070.50
2022-08-26T05:05:58.424Z,100069.25
2022-08-26T05:08:25.580Z,100064.88
2022-08-26T05:10:54.659Z,100074.59
2022-08-26T05:13:24.393Z,100070.50
2022-08-26T05:15:51.893Z,100075.78
2022-08-26T05:18:21.352Z,100067.94
2022-08-26T05:20:54.482Z,100059.69
2022-08-26T05:23:22.910Z,100065.63
2022-08-26T05:25:55.844Z,100066.03
2022-08-26T05:28:25.664Z,100063.38
2022-08-26T05:30:52.454Z,100067.78
2022-08-26T05:33:19.765Z,100061.94
2022-08-26T05:35:47.158Z,100056.78
2022-08-26T05:38:20.829Z,100062.50
2022-08-26T05:40:52.792Z,100062.00
2022-08-26T05:43:20.240Z,100060.78
2022-08-26T05:45:49.572Z,100050.00
2022-08-26T05:48:18.750Z,100057.66
2022-08-26T05:50:52.183Z,100053.59
2022-08-26T05:53:20.954Z,100054.78
2022-08-26T05:55:49.512Z,100060.56
2022-08-26T05:58:18.323Z,100048.22
2022-08-26T06:00:44.970Z,100051.66
2022-08-26T06:03:11.759Z,100047.13
2022-08-26T06:05:39.261Z,100058.56
2022-08-26T06:08:07.036Z,100069.56
2022-08-26T06:10:35.487Z,100060.66
2022-08-26T06:13:11.479Z,100067.63
2022-08-26T06:15:43.487Z,100067.84
2022-08-26T06:18:12.241Z,100062.19
2022-08-26T06:20:38.930Z,100062.72
2022-08-26T06:23:06.131Z,100057.44
2022-08-26T06:25:37.468Z,100051.25
2022-08-26T06:28:06.725Z,100056.47
2022-08-26T06:30:33.630Z,100047.91
2022-08-26T06:33:01.419Z,100044.31
2022-08-26T06:35:28.546Z,100028.16
2022-08-26T06:37:55.510Z,100035.25
2022-08-26T06:40:22.508Z,100032.66
2022-08-26T06:42:49.544Z,100037.84
2022-08-26T06:45:17.795Z,100040.28
2022-08-26T06:47:44.606Z,100030.81
2022-08-26T06:50:17.506Z,100026.50
2022-08-26T06:52:44.955Z,100016.72
2022-08-26T06:55:11.884Z,100025.00
2022-08-26T06:57:39.725Z,100028.25
2022-08-26T07:00:10.435Z,100020.47
2022-08-26T07:02:39.324Z,100024.44
2022-08-26T07:05:07.413Z,100033.53
2022-08-26T07:07:35.089Z,100016.59
2022-08-26T07:10:04.467Z,100023.63
2022-08-26T07:12:36.157Z,100020.72
2022-08-26T07:15:03.149Z,100004.47
2022-08-26T07:17:30.015Z,99996.88
2022-08-26T07:19:58.673Z,100016.31
2022-08-26T07:22:26.174Z,100017.47
2022-08-26T07:24:52.887Z,100005.53
2022-08-26T07:27:19.798Z,100008.75
2022-08-26T07:29:47.708Z,100011.78
2022-08-26T07:32:16.795Z,100016.75
2022-08-26T07:34:45.345Z,100013.06
2022-08-26T07:37:13.507Z,100020.28
2022-08-26T07:39:41.046Z,100019.75
2022-08-26T07:42:10.010Z,99995.25
2022-08-26T07:44:37.414Z,100017.09
2022-08-26T07:47:10.504Z,100000.53
2022-08-26T07:49:52.762Z,99997.31
2022-08-26T07:52:25.541Z,100010.25
2022-08-26T07:54:53.264Z,100007.38
2022-08-26T07:57:19.971Z,100001.34
2022-08-26T07:59:47.687Z,99990.19
2022-08-26T08:02:14.436Z,99998.97
2022-08-26T08:04:41.411Z,99992.31
2022-08-26T08:07:11.531Z,99990.03
2022-08-26T08:09:40.756Z,99991.91
2022-08-26T08:12:08.221Z,99980.44
2022-08-26T08:14:40.998Z,99980.69
2022-08-26T08:17:08.691Z,99985.44
2022-08-26T08:19:36.867Z,99984.78
2022-08-26T08:22:13.325Z,99989.84
2022-08-26T08:24:45.736Z,99974.84
2022-08-26T08:27:18.134Z,99991.44
2022-08-26T08:29:48.174Z,99989.16
2022-08-26T08:32:15.642Z,99986.28
2022-08-26T08:37:15.810Z,99975.41
2022-08-26T08:39:42.806Z,99963.28
2022-08-26T08:42:33.021Z,99974.63
2022-08-26T08:45:05.073Z,99971.56
2022-08-26T08:47:36.361Z,99972.91
2022-08-26T08:50:11.557Z,99965.13
2022-08-26T08:52:41.269Z,99966.94
2022-08-26T08:55:11.858Z,99965.00
2022-08-26T08:57:55.830Z,99953.97
2022-08-26T09:00:39.667Z,99966.50
2022-08-26T09:03:17.037Z,99962.03
2022-08-26T09:05:48.710Z,99953.72
2022-08-26T09:08:19.876Z,99962.44
2022-08-26T09:10:51.706Z,99961.09
2022-08-26T09:13:25.293Z,99951.25
2022-08-26T09:16:03.433Z,99926.88
2022-08-26T09:18:47.596Z,99946.75
2022-08-26T09:21:16.762Z,99940.38
2022-08-26T09:23:49.343Z,99942.41
2022-08-26T09:26:20.227Z,99942.22
2022-08-26T09:28:54.704Z,99947.28
2022-08-26T09:31:24.457Z,99947.84
2022-08-26T09:34:06.442Z,99948.97
2022-08-26T09:36:41.039Z,99942.38
2022-08-26T09:39:26.665Z,99938.56
2022-08-26T09:42:07.473Z,99930.53
2022-08-26T09:44:51.488Z,99948.09
2022-08-26T09:47:23.240Z,99938.94
2022-08-26T09:49:58.944Z,99928.72
2022-08-26T09:52:25.700Z,99943.25
2022-08-26T09:55:03.544Z,99939.84
2022-08-26T09:57:32.527Z,99939.91
2022-08-26T10:00:01.057Z,99927.31
2022-08-26T10:02:38.306Z,99909.81
2022-08-26T10:05:09.926Z,99933.09
2022-08-26T10:07:41.062Z,99933.78
2022-08-26T10:10:13.378Z,99921.84
2022-08-26T10:12:49.344Z,99907.84
2022-08-26T10:15:19.071Z,99920.94
2022-08-26T10:17:55.401Z,99916.34
2022-08-26T10:20:26.418Z,99916.34
2022-08-26T10:22:59.332Z,99912.53
2022-08-26T10:25:31.623Z,99916.81
2022-08-26T10:28:05.884Z,99896.53
2022-08-26T10:30:40.515Z,99907.44
2022-08-26T10:33:12.072Z,99891.22
2022-08-26T10:35:52.523Z,99887.13
2022-08-26T10:38:24.099Z,99901.00
2022-08-26T10:40:58.923Z,99881.09
2022-08-26T10:43:30.617Z,99891.56
2022-08-26T10:46:03.058Z,99901.44
2022-08-26T10:48:38.933Z,99864.66
2022-08-26T10:51:06.605Z,99880.97
2022-08-26T10:53:45.656Z,99898.50
2022-08-26T10:56:24.765Z,99888.00
2022-08-26T10:59:01.154Z,99874.31
2022-08-26T11:01:34.527Z,99878.34
2022-08-26T11:04:16.806Z,99885.63
2022-08-26T11:06:43.734Z,99879.81
2022-08-26T11:09:10.415Z,99885.38
2022-08-26T11:11:49.221Z,99855.88
2022-08-26T11:14:42.061Z,99874.00
2022-08-26T11:18:00.279Z,99875.28
2022-08-26T11:20:41.526Z,99867.50
2022-08-26T11:23:38.008Z,99867.91
2022-08-26T11:26:20.410Z,99870.00
2022-08-26T11:29:03.274Z,99857.81
2022-08-26T11:31:53.016Z,99864.81
2022-08-26T11:34:56.371Z,99865.00
2022-08-26T11:37:32.421Z,99861.72
2022-08-26T11:40:01.364Z,99853.19
2022-08-26T11:42:36.407Z,99843.59
2022-08-26T11:45:18.065Z,99824.53
2022-08-26T11:47:45.311Z,99849.38
2022-08-26T11:50:17.281Z,99839.63
2022-08-26T11:52:52.754Z,99834.56
2022-08-26T11:55:20.638Z,99836.97
2022-08-26T11:57:53.408Z,99825.34
2022-08-26T12:00:33.308Z,99822.84
2022-08-26T12:03:05.128Z,99817.19
2022-08-26T12:05:38.278Z,99800.06
2022-08-26T12:08:09.887Z,99814.81
2022-08-26T12:10:37.247Z,99817.09
2022-08-26T12:13:05.576Z,99800.06
2022-08-26T12:15:33.917Z,99798.06
2022-08-26T12:18:20.688Z,99803.88
2022-08-26T12:20:59.881Z,99802.88
2022-08-26T12:23:36.414Z,99787.53
2022-08-26T12:26:08.186Z,99793.75
2022-08-26T12:28:43.760Z,99784.44
2022-08-26T12:31:10.707Z,99792.09
2022-08-26T12:33:37.854Z,99786.69
2022-08-26T12:36:06.477Z,99790.16
2022-08-26T12:38:35.882Z,99786.06
2022-08-26T12:41:02.663Z,99786.56
2022-08-26T12:43:43.387Z,99782.22
2022-08-26T12:46:12.591Z,99778.13
2022-08-26T12:48:42.483Z,99780.34
2022-08-26T12:51:24.234Z,99767.34
2022-08-26T12:53:51.918Z,99775.63
2022-08-26T12:56:25.126Z,99774.00
2022-08-26T12:59:19.389Z,99768.94
2022-08-26T13:01:46.493Z,99767.84
2022-08-26T13:04:34.104Z,99756.19
2022-08-26T13:07:22.598Z,99760.09
2022-08-26T13:09:50.483Z,99761.16
2022-08-26T13:12:25.113Z,99728.34
2022-08-26T13:14:51.889Z,99736.53
2022-08-26T13:17:18.656Z,99725.53
2022-08-26T13:19:45.502Z,99736.06
2022-08-26T13:22:13.493Z,99739.16
2022-08-26T13:24:43.325Z,99723.00
2022-08-26T13:27:13.015Z,99722.13
2022-08-26T13:29:40.381Z,99720.69
2022-08-26T13:32:08.790Z,99712.81
2022-08-26T13:34:38.063Z,99723.38
2022-08-26T13:37:05.007Z,99718.28
2022-08-26T13:39:51.272Z,99683.41
2022-08-26T13:42:17.949Z,99709.69
2022-08-26T13:44:44.935Z,99700.06
2022-08-26T13:47:11.699Z,99676.75
2022-08-26T13:49:38.472Z,99709.84
2022-08-26T13:52:05.218Z,99704.59
2022-08-26T13:54:31.987Z,99681.13
2022-08-26T13:57:00.106Z,99682.34
2022-08-26T13:59:26.805Z,99703.16
2022-08-26T14:01:53.807Z,99692.09
2022-08-26T14:04:27.194Z,99684.66
2022-08-26T14:06:54.248Z,99653.41
2022-08-26T14:09:20.998Z,99679.28
2022-08-26T14:11:54.024Z,99678.56
2022-08-26T14:14:23.366Z,99666.41
2022-08-26T14:16:58.938Z,99667.28
2022-08-26T14:19:26.794Z,99665.50
2022-08-26T14:21:53.544Z,99652.72
2022-08-26T14:24:20.409Z,99663.41
2022-08-26T14:26:47.237Z,99658.41
2022-08-26T14:29:16.197Z,99634.25
2022-08-26T14:31:45.073Z,99641.00
2022-08-26T14:34:13.800Z,99661.91
2022-08-26T14:36:40.728Z,99646.88
2022-08-26T14:39:10.777Z,99638.34
2022-08-26T14:41:44.463Z,99656.19
2022-08-26T14:44:15.091Z,99657.81
2022-08-26T14:46:46.131Z,99643.97
2022-08-26T14:49:15.738Z,99655.75
2022-08-26T14:51:44.091Z,99631.19
2022-08-26T14:54:17.872Z,99611.78
2022-08-26T14:56:56.662Z,99621.97
2022-08-26T14:59:28.402Z,99647.97
2022-08-26T15:02:37.805Z,99601.88
2022-08-26T15:05:05.707Z,99634.69
2022-08-26T15:07:46.173Z,99616.34
2022-08-26T15:10:15.425Z,99587.66
2022-08-26T15:12:45.827Z,99630.09
2022-08-26T15:15:14.601Z,99605.28
2022-08-26T15:17:42.689Z,99619.41
2022-08-26T15:20:12.323Z,99623.78
2022-08-26T15:22:43.015Z,99600.66
2022-08-26T15:25:10.789Z,99582.84
2022-08-26T15:27:38.235Z,99607.38
2022-08-26T15:30:07.976Z,99595.59
2022-08-26T15:32:35.320Z,99608.97
2022-08-26T15:35:08.680Z,99612.09
2022-08-26T15:37:36.187Z,99596.31
2022-08-26T15:40:04.433Z,99605.78
2022-08-26T15:42:31.259Z,99603.47
2022-08-26T15:45:00.365Z,99576.88
2022-08-26T15:47:27.135Z,99581.09
2022-08-26T15:49:59.296Z,99598.59
2022-08-26T15:52:37.683Z,99595.44
2022-08-26T15:55:08.694Z,99600.78
2022-08-26T15:57:35.484Z,99604.06
2022-08-26T16:00:04.736Z,99604.31
2022-08-26T16:02:32.429Z,99596.06
2022-08-26T16:04:59.397Z,99600.69
2022-08-26T16:07:26.628Z,99595.56
2022-08-26T16:09:54.716Z,99601.41
2022-08-26T16:12:22.485Z,99589.47
2022-08-26T16:14:49.230Z,99598.69
2022-08-26T16:17:21.557Z,99577.38
2022-08-26T16:19:47.996Z,99601.47
2022-08-26T16:22:14.793Z,99590.88
2022-08-26T16:24:41.636Z,99592.06
2022-08-26T16:27:09.823Z,99606.50
2022-08-26T16:29:37.948Z,99572.81
2022-08-26T16:32:04.887Z,99606.47
2022-08-26T16:34:34.621Z,99599.25
2022-08-26T16:37:03.194Z,99601.66
2022-08-26T16:39:34.413Z,99605.41
2022-08-26T16:45:13.923Z,99572.66
2022-08-26T16:47:42.463Z,99597.53
2022-08-26T16:50:13.862Z,99581.22
2022-08-26T16:52:45.634Z,99553.16
2022-08-26T16:55:24.483Z,99604.28
2022-08-26T16:58:04.135Z,99596.22
2022-08-26T17:00:38.514Z,99590.34
2022-08-26T17:03:14.523Z,99585.75
2022-08-26T17:05:51.652Z,99604.34
2022-08-26T17:08:28.690Z,99554.56
2022-08-26T17:11:00.465Z,99606.25
2022-08-26T17:13:35.125Z,99583.69
2022-08-26T17:16:08.999Z,99565.25
2022-08-26T17:18:37.900Z,99597.44
2022-08-26T17:21:10.802Z,99612.22
2022-08-26T17:23:43.634Z,99611.78
2022-08-26T17:26:21.686Z,99582.06
2022-08-26T17:28:52.203Z,99585.75
2022-08-26T17:31:23.891Z,99587.09
2022-08-26T17:33:54.375Z,99604.59
2022-08-26T17:36:22.150Z,99590.41
2022-08-26T17:38:49.290Z,99584.09
2022-08-26T17:41:22.205Z,99618.66
2022-08-26T17:43:55.058Z,99596.06
2022-08-26T17:46:23.987Z,99586.06
2022-08-26T17:48:52.723Z,99627.28
2022-08-26T17:51:20.207Z,99636.50
2022-08-26T17:53:47.760Z,99629.66
2022-08-26T17:56:16.897Z,99626.28
2022-08-26T17:58:51.096Z,99607.34
2022-08-26T18:01:19.732Z,99615.47
2022-08-26T18:03:48.497Z,99633.41
2022-08-26T18:06:15.278Z,99637.09
2022-08-26T18:08:42.354Z,99632.16
2022-08-26T18:11:17.888Z,99633.66
2022-08-26T18:13:47.841Z,99623.19
2022-08-26T18:16:15.625Z,99646.25
2022-08-26T18:18:51.470Z,99599.28
2022-08-26T18:21:20.354Z,99607.16
2022-08-26T18:23:57.663Z,99658.44
2022-08-26T18:26:31.684Z,99633.66
2022-08-26T18:29:07.890Z,99626.19
2022-08-26T18:31:44.556Z,99649.88
2022-08-26T18:34:21.787Z,99619.94
2022-08-26T18:36:57.322Z,99612.25
2022-08-26T18:39:24.600Z,99624.38
2022-08-26T18:41:53.472Z,99651.69
2022-08-26T18:44:21.212Z,99651.69
2022-08-26T18:46:48.247Z,99658.91
2022-08-26T18:49:18.357Z,99669.81
2022-08-26T18:51:45.793Z,99672.38
2022-08-26T18:54:13.079Z,99670.06
2022-08-26T18:56:42.453Z,99674.28
2022-08-26T18:59:11.545Z,99670.97
2022-08-26T19:01:41.019Z,99683.16
2022-08-26T19:04:09.769Z,99689.78
2022-08-26T19:06:46.861Z,99684.00
2022-08-26T19:09:14.742Z,99661.72
2022-08-26T19:11:45.504Z,99684.94
2022-08-26T19:14:15.899Z,99668.47
2022-08-26T19:16:45.259Z,99686.88
2022-08-26T19:19:12.569Z,99684.53
2022-08-26T19:21:39.840Z,99679.69
2022-08-26T19:24:11.538Z,99687.81
2022-08-26T19:26:41.959Z,99689.00
2022-08-26T19:29:09.958Z,99689.25
2022-08-26T19:31:36.933Z,99643.94
2022-08-26T19:34:07.339Z,99666.84
2022-08-26T19:36:34.566Z,99682.00
2022-08-26T19:39:01.862Z,99693.63
2022-08-26T19:41:36.565Z,99705.13
2022-08-26T19:44:07.303Z,99705.69
2022-08-26T19:46:34.542Z,99715.47
2022-08-26T19:49:01.546Z,99703.84
2022-08-26T19:51:31.643Z,99708.44
2022-08-26T19:54:00.208Z,99700.28
2022-08-26T19:56:31.458Z,99697.25
2022-08-26T19:58:58.179Z,99715.69
2022-08-26T20:01:25.614Z,99689.22
2022-08-26T20:03:52.511Z,99719.91
2022-08-26T20:06:19.739Z,99690.75
2022-08-26T20:08:50.831Z,99724.28
2022-08-26T20:11:20.632Z,99689.28
2022-08-26T20:13:48.870Z,99727.41
2022-08-26T20:16:16.657Z,99722.06
2022-08-26T20:18:44.789Z,99718.75
2022-08-26T20:21:12.184Z,99721.56
2022-08-26T20:23:39.099Z,99709.22
2022-08-26T20:26:06.965Z,99698.91
2022-08-26T20:28:33.748Z,99730.00
2022-08-26T20:31:02.642Z,99693.34
2022-08-26T20:33:29.641Z,99719.53
2022-08-26T20:36:11.149Z,99709.69
2022-08-26T20:38:37.894Z,99727.13
2022-08-26T20:41:04.781Z,99726.28
2022-08-26T20:43:31.596Z,99733.78
2022-08-26T20:45:58.505Z,99726.94
2022-08-26T20:48:26.835Z,99725.91
2022-08-26T20:50:58.241Z,99730.69
2022-08-26T20:53:25.794Z,99727.16
2022-08-26T20:55:52.835Z,99729.06
2022-08-26T20:58:19.833Z,99736.16
2022-08-26T21:00:46.534Z,99734.47
2022-08-26T21:03:13.392Z,99728.59
2022-08-26T21:05:41.988Z,99728.53
2022-08-26T21:08:09.099Z,99721.91
2022-08-26T21:10:38.326Z,99711.09
2022-08-26T21:13:06.067Z,99715.53
2022-08-26T21:15:34.847Z,99700.00
2022-08-26T21:18:01.633Z,99715.31
2022-08-26T21:20:28.531Z,99691.72
2022-08-26T21:22:56.925Z,99710.75
2022-08-26T21:25:23.643Z,99720.53
2022-08-26T21:27:50.425Z,99712.25
2022-08-26T21:30:17.337Z,99710.28
2022-08-26T21:32:44.091Z,99715.81
2022-08-26T21:35:10.986Z,99680.75
2022-08-26T21:37:37.728Z,99725.69
2022-08-26T21:40:09.806Z,99728.59
2022-08-26T21:42:36.603Z,99694.22
2022-08-26T21:45:04.385Z,99704.44
2022-08-26T21:47:31.099Z,99711.41
2022-08-26T21:49:58.094Z,99724.84
2022-08-26T21:52:25.028Z,99718.25
2022-08-26T21:54:56.930Z,99714.25
2022-08-26T21:57:26.026Z,99723.59
2022-08-26T21:59:52.752Z,99750.56
2022-08-26T22:02:20.483Z,99725.31
2022-08-26T22:04:49.009Z,99715.41
2022-08-26T22:07:16.585Z,99698.75
2022-08-26T22:09:44.506Z,99734.25
2022-08-26T22:12:12.372Z,99728.25
2022-08-26T22:14:40.468Z,99724.63
2022-08-26T22:17:07.253Z,99715.63
2022-08-26T22:19:34.161Z,99735.00
2022-08-26T22:22:12.760Z,99733.25
2022-08-26T22:24:39.742Z,99751.66
2022-08-26T22:27:06.665Z,99741.00
2022-08-26T22:29:33.512Z,99713.00
2022-08-26T22:32:01.914Z,99733.84
2022-08-26T22:34:28.620Z,99726.63
2022-08-26T22:36:55.449Z,99744.44
2022-08-26T22:39:25.398Z,99742.81
2022-08-26T22:41:53.402Z,99714.72
2022-08-26T22:44:21.044Z,99724.66
2022-08-26T22:46:49.046Z,99708.22
2022-08-26T22:49:17.644Z,99715.97
2022-08-26T22:51:45.692Z,99720.56
2022-08-26T22:54:12.587Z,99715.75
2022-08-26T22:56:39.678Z,99710.41
2022-08-26T22:59:07.329Z,99724.41
2022-08-26T23:01:36.076Z,99706.78
2022-08-26T23:04:03.879Z,99720.81
2022-08-26T23:06:32.068Z,99729.44
2022-08-26T23:08:58.870Z,99737.28
2022-08-26T23:11:25.618Z,99727.25
2022-08-26T23:13:52.405Z,99740.22
2022-08-26T23:16:19.272Z,99715.34
2022-08-26T23:18:45.949Z,99736.72
2022-08-26T23:21:12.806Z,99737.91
2022-08-26T23:23:41.020Z,99738.69
2022-08-26T23:26:08.552Z,99751.44
2022-08-26T23:28:36.215Z,99741.19
2022-08-26T23:31:04.020Z,99747.00
2022-08-26T23:33:30.795Z,99752.03
2022-08-26T23:35:57.556Z,99750.19
2022-08-26T23:38:24.331Z,99743.66
2022-08-26T23:40:52.530Z,99729.72
2022-08-26T23:43:19.240Z,99735.72
2022-08-26T23:45:45.919Z,99746.66
2022-08-26T23:48:12.719Z,99753.91
2022-08-26T23:50:39.443Z,99722.06
2022-08-26T23:53:06.109Z,99751.56
2022-08-26T23:55:34.905Z,99732.00
2022-08-26T23:58:03.284Z,99735.38
